Time;durP1;ratioP1;P1;durP2;ratioP2;P2;SDS_P1;SDS_P2;PMS_P1;PMS_P2;Temp;Humidity;BMP_temperature;BMP_pressure;BME280_temperature;BME280_humidity;BME280_pressure;Samples;Min_cycle;Max_cycle;Signal;HPM_P1;HPM_P2
2023/11/02 00:01:07;;;;;;;3.10;1.83;;;14.00;58.20;;;;;;5058449;28;20437;-51
2023/11/02 00:03:34;;;;;;;1.80;1.40;;;14.20;58.00;;;;;;5064086;28;20815;-54
2023/11/02 00:06:03;;;;;;;2.40;1.50;;;14.50;57.30;;;;;;5059975;28;20577;-53
2023/11/02 00:08:33;;;;;;;1.93;1.63;;;14.60;56.80;;;;;;5054624;28;20462;-54
2023/11/02 00:11:06;;;;;;;1.67;0.97;;;14.50;56.70;;;;;;5056408;28;20438;-53
2023/11/02 00:13:32;;;;;;;1.57;1.43;;;14.50;56.80;;;;;;5057987;28;20442;-50
2023/11/02 00:15:59;;;;;;;2.23;1.60;;;14.60;56.50;;;;;;5052459;28;20461;-56
2023/11/02 00:18:26;;;;;;;1.40;1.30;;;14.60;56.40;;;;;;5055843;28;20483;-51
2023/11/02 00:20:54;;;;;;;2.20;1.60;;;14.60;56.50;;;;;;5062181;28;20522;-50
2023/11/02 00:23:36;;;;;;;1.60;1.30;;;14.60;56.60;;;;;;5067206;28;20814;-49
2023/11/02 00:26:02;;;;;;;2.90;1.50;;;14.70;56.30;;;;;;5067635;28;20890;-51
2023/11/02 00:28:28;;;;;;;4.17;1.50;;;14.80;56.20;;;;;;5060539;28;20457;-50
2023/11/02 00:30:54;;;;;;;1.60;1.50;;;14.50;56.30;;;;;;5058970;28;21034;-51
2023/11/02 00:33:20;;;;;;;1.60;1.50;;;14.20;57.30;;;;;;5060683;28;20188;-53
2023/11/02 00:35:51;;;;;;;1.33;1.23;;;14.30;57.20;;;;;;5061532;28;20197;-53
2023/11/02 00:38:24;;;;;;;1.63;1.47;;;14.40;57.20;;;;;;5060122;28;20481;-49
2023/11/02 00:40:50;;;;;;;2.30;1.60;;;14.30;57.00;;;;;;5061214;28;20439;-51
2023/11/02 00:43:18;;;;;;;1.70;1.20;;;14.00;57.20;;;;;;5061649;28;20449;-50
2023/11/02 00:45:44;;;;;;;3.43;1.10;;;13.90;57.90;;;;;;5058737;28;20546;-50
2023/11/02 00:48:28;;;;;;;1.97;1.40;;;13.80;57.80;;;;;;5062363;28;20449;-51
2023/11/02 00:51:21;;;;;;;3.40;1.00;;;13.70;58.50;;;;;;5057424;28;20439;-53
2023/11/02 00:53:51;;;;;;;1.27;1.17;;;13.40;58.70;;;;;;5062859;28;20453;-52
2023/11/02 00:56:19;;;;;;;1.87;1.20;;;13.40;59.20;;;;;;5066914;28;20827;-50
2023/11/02 00:58:51;;;;;;;2.57;1.40;;;13.30;59.20;;;;;;5069852;28;20468;-50
2023/11/02 01:01:18;;;;;;;2.30;1.03;;;13.40;59.40;;;;;;5068855;28;20434;-52
2023/11/02 01:04:07;;;;;;;1.30;1.20;;;13.20;59.10;;;;;;5060082;28;20470;-54
2023/11/02 01:06:35;;;;;;;1.23;1.13;;;12.90;59.90;;;;;;5059749;28;20654;-53
2023/11/02 01:09:03;;;;;;;2.10;1.70;;;12.90;60.10;;;;;;5059095;28;20478;-51
2023/11/02 01:11:34;;;;;;;2.40;1.33;;;12.90;60.40;;;;;;5059854;28;21011;-50
2023/11/02 01:14:05;;;;;;;1.13;0.97;;;13.00;59.80;;;;;;5070116;28;20953;-49
2023/11/02 01:16:30;;;;;;;1.50;1.20;;;13.00;59.80;;;;;;5070735;28;20532;-57
2023/11/02 01:18:57;;;;;;;1.37;1.27;;;13.00;59.70;;;;;;5070393;28;20456;-53
2023/11/02 01:21:23;;;;;;;3.17;1.40;;;13.20;59.40;;;;;;5070677;28;20191;-51
2023/11/02 01:24:02;;;;;;;1.30;1.20;;;13.30;59.20;;;;;;5070623;28;20430;-51
2023/11/02 01:26:57;;;;;;;4.20;1.00;;;13.60;58.70;;;;;;5070440;28;20219;-50
2023/11/02 01:29:23;;;;;;;1.60;1.50;;;13.80;57.90;;;;;;5064068;28;20458;-52
2023/11/02 01:31:49;;;;;;;2.60;1.30;;;13.90;57.50;;;;;;5064888;28;21014;-50
2023/11/02 01:34:20;;;;;;;2.80;1.47;;;13.70;57.30;;;;;;5059936;28;20521;-51
2023/11/02 01:36:46;;;;;;;0.90;0.90;;;13.70;57.80;;;;;;5065753;28;20200;-54
2023/11/02 01:39:15;;;;;;;1.30;1.10;;;13.40;57.90;;;;;;5058399;28;21022;-56
2023/11/02 01:41:49;;;;;;;3.77;1.20;;;13.20;58.60;;;;;;5059157;28;21031;-53
2023/11/02 01:44:46;;;;;;;3.93;1.20;;;12.90;59.00;;;;;;5060761;28;21848;-51
2023/11/02 01:47:34;;;;;;;2.33;1.10;;;12.70;59.40;;;;;;5057148;28;20466;-55
2023/11/02 01:50:08;;;;;;;1.23;1.13;;;12.70;59.70;;;;;;5063376;28;20474;-49
2023/11/02 01:52:34;;;;;;;1.33;1.13;;;12.60;59.70;;;;;;5059988;28;20461;-56
2023/11/02 01:55:14;;;;;;;2.43;1.50;;;12.70;59.50;;;;;;5059257;28;21049;-49
2023/11/02 01:57:42;;;;;;;1.30;1.20;;;12.70;59.60;;;;;;5063367;28;20176;-54
2023/11/02 02:00:14;;;;;;;1.33;1.23;;;12.80;59.50;;;;;;5061998;28;20485;-54
2023/11/02 02:03:01;;;;;;;1.10;0.93;;;12.70;59.50;;;;;;5058022;28;20474;-50
2023/11/02 02:05:39;;;;;;;1.47;1.03;;;12.50;59.90;;;;;;5057423;28;20567;-56
2023/11/02 02:08:23;;;;;;;0.80;0.80;;;12.40;60.20;;;;;;5059400;28;20441;-55
2023/11/02 02:10:58;;;;;;;1.67;1.07;;;12.40;60.40;;;;;;5064496;28;20438;-54
2023/11/02 02:13:43;;;;;;;1.57;1.13;;;12.30;60.70;;;;;;5065689;28;20814;-51
2023/11/02 02:16:32;;;;;;;2.87;1.33;;;12.30;60.90;;;;;;5063363;28;20498;-51
2023/11/02 02:19:23;;;;;;;1.43;1.17;;;12.10;61.20;;;;;;5067967;28;20481;-52
2023/11/02 02:22:15;;;;;;;1.20;1.10;;;12.00;61.80;;;;;;5067537;28;20929;-53
2023/11/02 02:25:02;;;;;;;1.73;1.40;;;12.00;62.00;;;;;;5068531;28;20899;-58
2023/11/02 02:27:52;;;;;;;1.03;0.90;;;12.00;62.30;;;;;;5068192;28;20438;-54
2023/11/02 02:31:05;;;;;;;1.73;1.37;;;11.90;62.40;;;;;;5066026;28;20480;-51
2023/11/02 02:33:58;;;;;;;1.90;0.90;;;12.00;62.00;;;;;;5013927;28;20458;-52
2023/11/02 02:36:52;;;;;;;1.23;1.13;;;12.00;62.00;;;;;;5017964;28;20557;-56
2023/11/02 02:39:22;;;;;;;1.40;1.20;;;12.10;61.60;;;;;;5018917;28;20458;-51
2023/11/02 02:41:54;;;;;;;1.20;1.10;;;12.10;61.30;;;;;;5054556;28;20458;-50
2023/11/02 02:44:23;;;;;;;4.10;1.03;;;12.10;61.70;;;;;;5057484;28;20453;-53
2023/11/02 02:46:52;;;;;;;1.37;1.27;;;12.00;61.90;;;;;;5057128;28;20430;-52
2023/11/02 02:49:18;;;;;;;1.10;1.00;;;12.00;62.00;;;;;;5063427;28;20990;-50
2023/11/02 02:51:47;;;;;;;1.30;1.10;;;12.00;62.10;;;;;;5057587;28;20430;-52
2023/11/02 02:54:13;;;;;;;1.43;1.27;;;11.90;62.80;;;;;;5055613;28;20455;-49
2023/11/02 02:56:41;;;;;;;2.07;1.60;;;11.70;63.50;;;;;;5058446;28;20438;-52
2023/11/02 02:59:09;;;;;;;7.10;3.30;;;11.80;63.60;;;;;;5058227;28;21121;-50
2023/11/02 03:01:40;;;;;;;1.80;1.30;;;11.80;63.20;;;;;;5056355;28;20891;-54
2023/11/02 03:04:10;;;;;;;1.40;1.30;;;11.90;63.10;;;;;;5056631;28;20941;-50
2023/11/02 03:06:39;;;;;;;3.77;1.43;;;12.00;63.20;;;;;;5055047;28;20466;-50
2023/11/02 03:09:06;;;;;;;2.13;1.23;;;11.90;63.60;;;;;;5059771;28;21235;-56
2023/11/02 03:11:34;;;;;;;1.40;1.30;;;11.90;63.90;;;;;;5055135;28;20806;-54
2023/11/02 03:14:03;;;;;;;1.97;1.17;;;12.00;63.50;;;;;;5069438;28;20441;-52
2023/11/02 03:16:34;;;;;;;3.87;1.70;;;12.00;63.40;;;;;;5066505;28;20516;-50
2023/11/02 03:19:03;;;;;;;1.53;1.43;;;12.00;63.70;;;;;;5067729;28;20469;-52
2023/11/02 03:21:29;;;;;;;2.90;1.30;;;12.10;63.50;;;;;;5068038;28;20440;-52
2023/11/02 03:24:15;;;;;;;2.93;1.40;;;12.00;63.50;;;;;;5066362;28;20780;-50
2023/11/02 03:26:59;;;;;;;1.67;1.30;;;12.10;63.50;;;;;;5065937;28;20303;-52
2023/11/02 03:29:46;;;;;;;1.70;1.40;;;12.10;63.70;;;;;;5064778;28;20470;-52
2023/11/02 03:32:29;;;;;;;3.43;1.40;;;12.10;64.10;;;;;;5065707;28;20446;-52
2023/11/02 03:35:13;;;;;;;1.37;1.27;;;12.20;64.00;;;;;;5067797;28;20442;-52
2023/11/02 03:38:00;;;;;;;1.97;1.73;;;12.10;63.90;;;;;;5066380;28;20469;-51
2023/11/02 03:40:53;;;;;;;2.30;1.57;;;12.10;64.00;;;;;;5064891;28;20953;-50
2023/11/02 03:43:19;;;;;;;2.03;1.60;;;12.00;64.20;;;;;;5064863;28;20434;-52
2023/11/02 03:46:03;;;;;;;1.37;1.27;;;11.80;65.40;;;;;;5065810;28;20531;-50
2023/11/02 03:48:47;;;;;;;1.90;1.43;;;12.20;65.20;;;;;;5066057;28;20449;-50
2023/11/02 03:51:16;;;;;;;1.80;1.60;;;12.50;63.70;;;;;;5059922;28;20430;-53
2023/11/02 03:54:18;;;;;;;1.87;1.70;;;12.90;62.10;;;;;;5055510;28;21028;-57
2023/11/02 03:56:47;;;;;;;3.63;1.70;;;12.90;61.90;;;;;;5058344;28;20441;-53
2023/11/02 03:59:31;;;;;;;1.70;1.60;;;12.30;63.70;;;;;;5059206;28;20489;-50
2023/11/02 04:02:05;;;;;;;2.80;1.50;;;12.20;64.60;;;;;;5057909;28;20470;-51
2023/11/02 04:05:02;;;;;;;6.03;1.60;;;12.30;64.90;;;;;;5057580;28;20973;-51
2023/11/02 04:07:37;;;;;;;4.27;1.53;;;12.50;64.90;;;;;;5064277;28;20485;-51
2023/11/02 04:10:07;;;;;;;1.30;1.20;;;12.80;64.70;;;;;;5054011;28;20473;-55
2023/11/02 04:12:43;;;;;;;1.50;1.27;;;12.80;64.60;;;;;;5066058;28;20452;-52
2023/11/02 04:15:09;;;;;;;2.33;1.50;;;12.50;65.70;;;;;;5060239;28;20441;-52
2023/11/02 04:17:36;;;;;;;1.93;1.60;;;12.40;67.00;;;;;;5053556;28;20461;-52
2023/11/02 04:20:03;;;;;;;4.63;1.83;;;12.30;67.60;;;;;;5055535;28;20464;-55
2023/11/02 04:22:29;;;;;;;3.77;1.80;;;12.10;68.30;;;;;;5059863;28;20464;-53
2023/11/02 04:24:55;;;;;;;4.10;2.07;;;11.90;69.60;;;;;;5063412;28;20568;-55
2023/11/02 04:27:20;;;;;;;2.00;1.90;;;11.90;70.60;;;;;;5067248;28;20180;-50
2023/11/02 04:29:46;;;;;;;2.00;1.80;;;11.70;70.80;;;;;;5066342;28;20546;-55
2023/11/02 04:32:12;;;;;;;1.73;1.57;;;11.60;72.00;;;;;;5061845;28;20686;-54
2023/11/02 04:34:39;;;;;;;1.50;1.20;;;11.60;71.40;;;;;;5055462;28;20212;-51
2023/11/02 04:37:15;;;;;;;1.83;1.70;;;11.60;72.30;;;;;;5063408;28;20198;-57
2023/11/02 04:39:42;;;;;;;3.40;3.20;;;11.70;72.50;;;;;;5058321;28;20465;-51
2023/11/02 04:42:08;;;;;;;3.17;1.60;;;11.50;72.80;;;;;;5056132;28;20478;-54
2023/11/02 04:44:34;;;;;;;2.07;1.50;;;11.70;72.30;;;;;;5055871;28;20818;-54
2023/11/02 04:47:00;;;;;;;2.93;1.73;;;11.70;71.70;;;;;;5054878;28;20442;-51
2023/11/02 04:49:25;;;;;;;1.50;1.40;;;11.60;72.20;;;;;;5058361;28;20529;-53
2023/11/02 04:52:02;;;;;;;2.83;1.60;;;11.70;73.00;;;;;;5058018;28;20246;-51
2023/11/02 04:54:29;;;;;;;2.40;1.90;;;11.80;71.30;;;;;;5058796;28;20701;-55
2023/11/02 04:56:55;;;;;;;1.53;1.37;;;11.70;71.70;;;;;;5057247;28;20477;-55
2023/11/02 04:59:20;;;;;;;1.70;1.60;;;11.90;70.70;;;;;;5064541;28;20472;-55
2023/11/02 05:01:50;;;;;;;1.70;1.47;;;12.00;70.80;;;;;;5054394;28;20442;-56
2023/11/02 05:04:16;;;;;;;2.00;1.67;;;12.00;70.20;;;;;;5064217;28;20199;-52
2023/11/02 05:06:42;;;;;;;3.20;1.73;;;12.30;69.60;;;;;;5065545;28;20479;-58
2023/11/02 05:09:08;;;;;;;2.03;1.83;;;12.50;68.60;;;;;;5060867;28;20970;-53
2023/11/02 05:11:34;;;;;;;2.03;1.90;;;12.30;68.10;;;;;;5067361;28;20441;-49
2023/11/02 05:13:59;;;;;;;1.83;1.40;;;12.20;68.70;;;;;;5074119;28;20175;-51
2023/11/02 05:16:25;;;;;;;4.27;1.60;;;12.40;68.80;;;;;;5070315;28;20562;-53
2023/11/02 05:18:50;;;;;;;1.93;1.50;;;12.40;67.50;;;;;;5070624;28;20512;-51
2023/11/02 05:21:16;;;;;;;1.40;1.30;;;12.40;67.50;;;;;;5070705;28;20585;-51
2023/11/02 05:23:42;;;;;;;2.20;1.40;;;12.50;67.40;;;;;;5065155;28;20212;-58
2023/11/02 05:26:07;;;;;;;1.63;1.53;;;12.50;67.90;;;;;;5063490;28;20220;-52
2023/11/02 05:28:33;;;;;;;1.47;1.33;;;12.20;67.50;;;;;;5067394;28;20200;-53
2023/11/02 05:30:59;;;;;;;1.37;1.27;;;12.30;68.70;;;;;;5070080;28;20195;-53
2023/11/02 05:33:24;;;;;;;1.70;1.60;;;12.40;68.50;;;;;;5070417;28;20262;-50
2023/11/02 05:35:51;;;;;;;1.93;1.23;;;12.40;68.20;;;;;;5070391;28;20270;-51
2023/11/02 05:38:18;;;;;;;2.20;1.90;;;12.50;67.80;;;;;;5069683;28;20207;-54
2023/11/02 05:40:44;;;;;;;2.97;1.87;;;12.50;67.60;;;;;;5068335;28;20944;-50
2023/11/02 05:43:09;;;;;;;1.60;1.50;;;12.80;66.70;;;;;;5062750;28;20841;-50
2023/11/02 05:45:35;;;;;;;1.83;1.73;;;12.90;65.60;;;;;;5067068;28;20474;-56
2023/11/02 05:48:00;;;;;;;1.60;1.50;;;13.10;65.20;;;;;;5068581;28;20190;-51
2023/11/02 05:50:27;;;;;;;4.17;1.70;;;13.20;64.00;;;;;;5056795;28;20192;-49
2023/11/02 05:52:53;;;;;;;4.97;1.70;;;13.20;64.20;;;;;;5055625;28;20184;-52
2023/11/02 05:55:18;;;;;;;1.80;1.30;;;13.10;63.40;;;;;;5059886;28;20465;-54
2023/11/02 05:57:45;;;;;;;2.30;1.73;;;13.00;64.50;;;;;;5058438;28;20562;-49
2023/11/02 06:00:11;;;;;;;2.03;1.80;;;13.10;64.40;;;;;;5061192;28;20522;-54
2023/11/02 06:02:37;;;;;;;1.73;1.43;;;13.30;63.40;;;;;;5062754;28;20192;-53
2023/11/02 06:05:07;;;;;;;2.27;1.40;;;13.40;62.80;;;;;;5057544;28;20672;-49
2023/11/02 06:07:34;;;;;;;1.77;1.60;;;13.30;62.70;;;;;;5058689;28;20438;-53
2023/11/02 06:10:00;;;;;;;2.17;1.67;;;13.40;62.00;;;;;;5060381;28;20471;-55
2023/11/02 06:12:26;;;;;;;2.33;2.13;;;13.50;62.20;;;;;;5067634;28;20445;-57
2023/11/02 06:14:52;;;;;;;3.70;1.50;;;13.60;62.00;;;;;;5068107;28;20246;-53
2023/11/02 06:17:17;;;;;;;2.60;1.53;;;13.80;61.00;;;;;;5067940;28;20528;-53
2023/11/02 06:19:43;;;;;;;3.00;1.73;;;14.10;60.20;;;;;;5063936;28;20204;-51
2023/11/02 06:22:09;;;;;;;5.53;1.70;;;14.40;60.20;;;;;;5065949;28;20180;-50
2023/11/02 06:24:36;;;;;;;9.87;2.17;;;14.60;60.50;;;;;;5057452;28;20176;-54
2023/11/02 06:27:01;;;;;;;9.67;1.53;;;14.70;59.20;;;;;;5067792;28;20188;-54
2023/11/02 06:29:27;;;;;;;3.83;1.40;;;14.90;59.50;;;;;;5057792;28;20458;-52
2023/11/02 06:31:52;;;;;;;1.40;1.00;;;15.00;59.00;;;;;;5058221;28;20188;-50
2023/11/02 06:34:18;;;;;;;7.50;2.00;;;15.10;58.80;;;;;;5056745;28;20180;-56
2023/11/02 06:36:44;;;;;;;2.63;1.53;;;15.00;59.70;;;;;;5058041;28;20185;-54
2023/11/02 06:39:10;;;;;;;3.33;2.10;;;15.10;60.40;;;;;;5066643;28;20196;-54
2023/11/02 06:41:37;;;;;;;1.40;1.30;;;15.20;60.60;;;;;;5068589;28;20180;-55
2023/11/02 06:44:03;;;;;;;1.63;1.50;;;15.30;61.40;;;;;;5057843;28;20968;-51
2023/11/02 06:46:28;;;;;;;1.93;1.80;;;15.20;61.60;;;;;;5064759;28;20477;-55
2023/11/02 06:48:54;;;;;;;1.60;1.50;;;15.20;61.90;;;;;;5067667;28;20883;-53
2023/11/02 06:51:21;;;;;;;4.30;1.10;;;15.30;61.90;;;;;;5067561;28;20249;-55
2023/11/02 06:53:46;;;;;;;2.20;1.43;;;15.30;62.10;;;;;;5064296;28;20576;-52
2023/11/02 06:56:12;;;;;;;1.57;1.47;;;15.30;62.40;;;;;;5068827;28;20430;-53
2023/11/02 06:58:38;;;;;;;4.73;1.73;;;15.30;62.80;;;;;;5068125;28;20706;-50
2023/11/02 07:01:05;;;;;;;2.77;1.73;;;15.30;63.40;;;;;;5068216;28;20257;-50
2023/11/02 07:03:30;;;;;;;3.80;1.97;;;15.30;63.70;;;;;;5064018;28;20208;-55
2023/11/02 07:05:56;;;;;;;8.10;5.10;;;15.30;63.70;;;;;;5062471;28;20577;-53
2023/11/02 07:08:22;;;;;;;5.13;4.00;;;15.30;63.50;;;;;;5067301;28;20219;-50
2023/11/02 07:10:47;;;;;;;5.43;3.70;;;15.30;63.60;;;;;;5066816;28;20842;-52
2023/11/02 07:13:15;;;;;;;4.70;3.10;;;15.30;63.80;;;;;;5065047;28;20188;-51
2023/11/02 07:15:41;;;;;;;7.10;3.10;;;15.10;64.50;;;;;;5069091;28;20184;-53
2023/11/02 07:18:07;;;;;;;2.60;2.23;;;15.10;65.10;;;;;;5067436;28;20884;-54
2023/11/02 07:20:33;;;;;;;4.53;2.80;;;14.90;65.00;;;;;;5066574;28;20434;-53
2023/11/02 07:22:58;;;;;;;2.43;2.33;;;14.80;65.30;;;;;;5066191;28;20183;-53
2023/11/02 07:25:24;;;;;;;2.20;2.00;;;14.60;66.10;;;;;;5068088;28;20215;-50
2023/11/02 07:27:50;;;;;;;2.20;1.80;;;14.40;67.40;;;;;;5062254;28;20219;-55
2023/11/02 07:30:16;;;;;;;4.40;1.77;;;14.20;67.90;;;;;;5064002;28;21165;-52
2023/11/02 07:32:41;;;;;;;1.27;1.17;;;14.10;68.80;;;;;;5064910;28;20267;-54
2023/11/02 07:35:08;;;;;;;2.23;1.60;;;13.90;69.50;;;;;;5067402;28;20271;-50
2023/11/02 07:37:33;;;;;;;3.67;1.70;;;13.50;70.90;;;;;;5063603;28;20184;-54
2023/11/02 07:39:59;;;;;;;4.57;1.63;;;13.40;72.70;;;;;;5067229;28;20611;-52
2023/11/02 07:42:24;;;;;;;2.83;1.97;;;13.20;73.40;;;;;;5068139;28;20221;-52
2023/11/02 07:44:50;;;;;;;2.40;1.60;;;13.30;74.90;;;;;;5066338;28;20727;-50
2023/11/02 07:47:16;;;;;;;4.20;1.80;;;13.30;75.10;;;;;;5068212;28;20557;-53
2023/11/02 07:49:41;;;;;;;6.13;1.80;;;13.30;75.20;;;;;;5068243;28;20200;-54
2023/11/02 07:52:07;;;;;;;2.70;1.67;;;13.10;75.70;;;;;;5068399;28;20183;-54
2023/11/02 07:54:37;;;;;;;2.80;1.43;;;13.00;76.50;;;;;;5066672;28;20214;-52
2023/11/02 07:57:10;;;;;;;3.17;1.90;;;12.80;78.10;;;;;;5066692;28;22167;-53
2023/11/02 07:59:36;;;;;;;10.70;1.80;;;12.70;79.30;;;;;;5068047;28;20445;-53
2023/11/02 08:02:02;;;;;;;3.10;1.50;;;12.70;79.30;;;;;;5066368;28;20515;-50
2023/11/02 08:04:28;;;;;;;4.13;1.97;;;12.30;80.90;;;;;;5068076;28;20183;-50
2023/11/02 08:06:53;;;;;;;4.40;1.40;;;12.30;82.80;;;;;;5065786;28;20473;-52
2023/11/02 08:09:19;;;;;;;1.70;1.43;;;12.20;83.80;;;;;;5068220;28;20254;-55
2023/11/02 08:11:45;;;;;;;4.00;1.17;;;12.10;84.20;;;;;;5065235;28;20219;-52
2023/11/02 08:14:10;;;;;;;1.50;1.20;;;12.00;85.10;;;;;;5067035;28;20190;-52
2023/11/02 08:16:36;;;;;;;1.53;1.37;;;11.80;84.90;;;;;;5067888;28;20188;-56
2023/11/02 08:19:02;;;;;;;2.90;1.57;;;11.70;86.70;;;;;;5068256;28;20238;-55
2023/11/02 08:21:28;;;;;;;4.00;1.20;;;11.60;88.10;;;;;;5068037;28;20207;-50
2023/11/02 08:23:54;;;;;;;3.70;1.63;;;11.50;89.70;;;;;;5066716;28;20469;-55
2023/11/02 08:26:23;;;;;;;1.70;1.30;;;11.70;88.60;;;;;;5067073;28;20416;-54
2023/11/02 08:28:52;;;;;;;1.50;1.40;;;11.80;87.80;;;;;;5066677;28;20204;-51
2023/11/02 08:31:23;;;;;;;3.40;1.70;;;11.80;88.80;;;;;;5066316;28;20410;-51
2023/11/02 08:33:48;;;;;;;5.77;1.63;;;11.80;89.60;;;;;;5067542;28;20420;-52
2023/11/02 08:36:14;;;;;;;4.03;1.50;;;11.90;88.80;;;;;;5066844;28;20426;-54
2023/11/02 08:38:40;;;;;;;1.50;1.40;;;12.30;87.20;;;;;;5066283;28;20246;-56
2023/11/02 08:41:05;;;;;;;1.30;1.20;;;12.20;85.40;;;;;;5071194;28;20878;-56
2023/11/02 08:43:32;;;;;;;1.87;1.50;;;12.10;86.50;;;;;;5067344;28;20263;-53
2023/11/02 08:45:58;;;;;;;1.60;1.50;;;12.10;87.00;;;;;;5070157;28;20302;-52
2023/11/02 08:48:23;;;;;;;2.10;1.70;;;12.40;86.90;;;;;;5070807;28;20545;-51
2023/11/02 08:50:49;;;;;;;2.00;1.47;;;12.60;86.20;;;;;;5068755;28;20238;-49
2023/11/02 08:53:15;;;;;;;1.77;1.53;;;12.60;85.90;;;;;;5073947;28;20263;-49
2023/11/02 08:55:40;;;;;;;2.83;1.80;;;12.60;85.70;;;;;;5071669;28;20237;-51
2023/11/02 08:58:06;;;;;;;4.50;4.20;;;12.50;86.00;;;;;;5070207;28;20200;-53
2023/11/02 09:00:33;;;;;;;2.43;1.37;;;12.60;86.90;;;;;;5070591;28;20608;-50
2023/11/02 09:02:59;;;;;;;2.33;1.80;;;12.60;85.60;;;;;;5069769;28;20180;-49
2023/11/02 09:05:24;;;;;;;2.33;2.13;;;12.70;86.20;;;;;;5069479;28;20531;-50
2023/11/02 09:07:50;;;;;;;2.97;1.50;;;12.80;84.70;;;;;;5070066;28;20212;-50
2023/11/02 09:10:16;;;;;;;4.03;2.00;;;12.80;84.40;;;;;;5070220;28;20853;-54
2023/11/02 09:12:41;;;;;;;2.93;1.60;;;12.90;84.60;;;;;;5071140;28;20585;-49
2023/11/02 09:15:09;;;;;;;2.97;2.20;;;12.80;84.10;;;;;;5070407;28;20184;-50
2023/11/02 09:17:34;;;;;;;2.00;1.80;;;12.60;84.50;;;;;;5069635;28;20267;-55
2023/11/02 09:20:00;;;;;;;1.83;1.70;;;12.50;85.80;;;;;;5068137;28;20885;-53
2023/11/02 09:22:26;;;;;;;1.63;1.53;;;12.70;85.90;;;;;;5069698;28;20188;-52
2023/11/02 09:24:51;;;;;;;2.10;1.30;;;12.70;85.30;;;;;;5059939;28;20271;-57
2023/11/02 09:27:17;;;;;;;3.53;1.70;;;12.90;84.50;;;;;;5057819;28;20442;-54
2023/11/02 09:29:45;;;;;;;1.37;1.27;;;13.00;83.30;;;;;;5059470;28;20761;-52
2023/11/02 09:32:11;;;;;;;1.20;1.10;;;13.20;82.60;;;;;;5059449;28;20223;-51
2023/11/02 09:34:38;;;;;;;5.50;1.50;;;13.40;80.70;;;;;;5063288;28;20519;-50
2023/11/02 09:37:04;;;;;;;1.60;1.27;;;13.40;79.90;;;;;;5067523;28;20578;-52
2023/11/02 09:39:31;;;;;;;1.43;1.20;;;13.50;78.40;;;;;;5069410;28;20445;-49
2023/11/02 09:41:57;;;;;;;1.40;1.30;;;13.60;78.00;;;;;;5067600;28;20433;-55
2023/11/02 09:44:23;;;;;;;2.57;1.33;;;13.90;77.40;;;;;;5064292;28;20973;-52
2023/11/02 09:46:50;;;;;;;1.83;1.50;;;14.10;76.20;;;;;;5060998;28;20634;-50
2023/11/02 09:49:16;;;;;;;1.37;1.10;;;14.10;75.50;;;;;;5068573;28;20461;-51
2023/11/02 09:51:42;;;;;;;1.77;1.50;;;14.30;75.40;;;;;;5067798;28;20449;-52
2023/11/02 09:54:08;;;;;;;4.00;2.33;;;14.40;74.40;;;;;;5070131;28;20204;-54
2023/11/02 09:56:35;;;;;;;3.40;1.57;;;14.20;75.00;;;;;;5067456;28;20469;-54
2023/11/02 09:59:03;;;;;;;2.60;1.73;;;14.40;76.10;;;;;;5068474;28;20454;-51
2023/11/02 10:01:29;;;;;;;3.20;1.80;;;14.60;75.10;;;;;;5065450;28;20434;-54
2023/11/02 10:03:54;;;;;;;2.97;1.83;;;14.40;76.20;;;;;;5065611;28;20499;-54
2023/11/02 10:06:20;;;;;;;3.40;2.43;;;14.30;77.70;;;;;;5055817;28;20496;-55
2023/11/02 10:08:45;;;;;;;3.33;1.80;;;14.10;79.50;;;;;;5052429;28;20208;-54
2023/11/02 10:11:18;;;;;;;3.27;1.80;;;14.10;79.50;;;;;;5057106;28;20278;-54
2023/11/02 10:13:47;;;;;;;1.90;1.80;;;14.10;80.30;;;;;;5055881;28;20217;-57
2023/11/02 10:16:12;;;;;;;2.90;1.83;;;14.30;79.50;;;;;;5063780;28;20453;-55
2023/11/02 10:18:39;;;;;;;4.00;1.37;;;14.30;78.60;;;;;;5063595;28;20454;-50
2023/11/02 10:21:08;;;;;;;1.97;1.20;;;14.30;77.20;;;;;;5065842;28;20184;-53
2023/11/02 10:24:02;;;;;;;1.60;1.47;;;14.30;77.90;;;;;;5064450;28;20442;-53
2023/11/02 10:26:29;;;;;;;1.63;1.40;;;14.30;77.30;;;;;;5057908;28;20559;-55
2023/11/02 10:28:56;;;;;;;1.40;1.30;;;14.40;77.60;;;;;;5057542;28;20469;-56
2023/11/02 10:31:30;;;;;;;2.00;1.80;;;14.40;77.00;;;;;;5062997;28;20440;-53
2023/11/02 10:34:01;;;;;;;6.50;4.70;;;14.40;77.40;;;;;;5064714;28;20439;-51
2023/11/02 10:36:29;;;;;;;2.90;2.60;;;14.60;77.20;;;;;;5065437;28;20434;-55
2023/11/02 10:38:55;;;;;;;1.30;1.20;;;14.80;77.00;;;;;;5066454;28;20883;-53
2023/11/02 10:41:21;;;;;;;1.13;1.00;;;14.80;76.80;;;;;;5067653;28;20492;-50
2023/11/02 10:43:48;;;;;;;1.53;1.20;;;14.70;76.50;;;;;;5065150;28;20778;-55
2023/11/02 10:46:15;;;;;;;2.90;1.07;;;14.90;76.60;;;;;;5059633;28;20214;-52
2023/11/02 10:48:42;;;;;;;3.30;1.50;;;15.00;76.40;;;;;;5055996;28;20926;-55
2023/11/02 10:51:15;;;;;;;1.13;0.90;;;15.00;75.70;;;;;;5060013;28;20449;-51
2023/11/02 10:54:22;;;;;;;1.83;1.10;;;15.20;75.60;;;;;;5057360;28;20460;-52
2023/11/02 10:56:54;;;;;;;1.10;0.93;;;15.20;74.40;;;;;;5053844;28;20459;-55
2023/11/02 10:59:21;;;;;;;0.70;0.70;;;15.20;74.90;;;;;;5061293;28;20471;-56
2023/11/02 11:01:48;;;;;;;4.30;1.07;;;15.10;75.30;;;;;;5059153;28;20438;-52
2023/11/02 11:04:14;;;;;;;1.60;0.90;;;15.10;75.90;;;;;;5067155;28;20450;-54
2023/11/02 11:06:43;;;;;;;1.90;1.03;;;15.20;75.30;;;;;;5065451;28;20944;-50
2023/11/02 11:09:11;;;;;;;1.00;0.90;;;15.30;74.70;;;;;;5061639;28;20465;-50
2023/11/02 11:11:38;;;;;;;1.40;1.13;;;15.20;74.30;;;;;;5062026;28;20473;-53
2023/11/02 11:14:03;;;;;;;1.10;0.83;;;15.30;73.80;;;;;;5066328;28;20489;-55
2023/11/02 11:16:30;;;;;;;1.73;0.80;;;15.20;72.90;;;;;;5066608;28;20815;-52
2023/11/02 11:18:56;;;;;;;1.20;1.20;;;15.10;73.20;;;;;;5068193;28;20231;-50
2023/11/02 11:21:23;;;;;;;1.27;0.80;;;15.20;73.30;;;;;;5067650;28;20442;-53
2023/11/02 11:23:49;;;;;;;1.03;0.93;;;15.20;73.50;;;;;;5062043;28;20803;-52
2023/11/02 11:26:16;;;;;;;1.23;1.00;;;15.30;73.20;;;;;;5063287;28;20476;-53
2023/11/02 11:28:41;;;;;;;2.60;0.90;;;15.40;72.50;;;;;;5067807;28;20235;-53
2023/11/02 11:31:46;;;;;;;1.53;0.70;;;15.40;71.50;;;;;;5055149;28;20473;-52
2023/11/02 11:34:11;;;;;;;0.80;0.80;;;15.50;71.30;;;;;;5058888;28;20199;-51
2023/11/02 11:36:37;;;;;;;3.13;1.00;;;15.30;71.20;;;;;;5063578;28;21214;-52
2023/11/02 11:39:32;;;;;;;1.10;0.70;;;15.30;71.60;;;;;;5065526;28;20271;-52
2023/11/02 11:41:59;;;;;;;3.20;0.90;;;15.20;71.90;;;;;;5064500;28;20194;-51
2023/11/02 11:44:24;;;;;;;0.60;0.60;;;15.00;72.30;;;;;;5066245;28;20442;-50
2023/11/02 11:46:54;;;;;;;1.00;0.80;;;15.00;72.90;;;;;;5064231;28;20481;-50
2023/11/02 11:49:36;;;;;;;1.50;1.00;;;15.00;72.40;;;;;;5067020;28;20458;-51
2023/11/02 11:52:05;;;;;;;2.20;1.07;;;15.10;72.20;;;;;;5062408;28;20449;-54
2023/11/02 11:54:31;;;;;;;1.07;0.73;;;15.10;71.90;;;;;;5065170;28;20438;-50
2023/11/02 11:56:57;;;;;;;1.80;1.00;;;15.10;71.60;;;;;;5065933;28;20434;-52
2023/11/02 11:59:55;;;;;;;1.83;1.00;;;15.20;72.00;;;;;;5068210;28;20232;-55
2023/11/02 12:02:35;;;;;;;1.17;0.97;;;15.20;71.50;;;;;;5045444;28;20450;-50
2023/11/02 12:05:01;;;;;;;2.40;1.10;;;15.00;72.10;;;;;;5062663;28;20437;-54
2023/11/02 12:07:26;;;;;;;0.80;0.60;;;15.10;72.60;;;;;;5066427;28;20511;-51
2023/11/02 12:09:52;;;;;;;1.93;0.73;;;15.00;70.80;;;;;;5065162;28;20219;-52
2023/11/02 12:12:24;;;;;;;1.10;0.93;;;15.10;71.20;;;;;;5064983;28;20198;-52
2023/11/02 12:14:50;;;;;;;1.37;0.93;;;15.20;71.30;;;;;;5061844;28;21650;-54
2023/11/02 12:17:15;;;;;;;1.90;1.67;;;15.30;71.40;;;;;;5071011;28;20446;-53
2023/11/02 12:19:42;;;;;;;1.93;1.17;;;15.40;70.00;;;;;;5070072;28;20214;-52
2023/11/02 12:22:12;;;;;;;1.70;0.80;;;15.60;69.30;;;;;;5071014;28;20223;-55
2023/11/02 12:24:40;;;;;;;1.00;1.00;;;15.40;68.50;;;;;;5063826;28;20452;-54
2023/11/02 12:27:10;;;;;;;1.23;0.77;;;15.30;69.60;;;;;;5066083;28;20549;-54
2023/11/02 12:29:36;;;;;;;0.70;0.70;;;15.40;69.90;;;;;;5068271;28;20458;-52
2023/11/02 12:32:02;;;;;;;3.13;0.90;;;15.20;69.30;;;;;;5069939;28;20529;-51
2023/11/02 12:34:27;;;;;;;0.73;0.73;;;15.10;69.00;;;;;;5070792;28;20267;-52
2023/11/02 12:36:53;;;;;;;0.80;0.70;;;14.80;70.60;;;;;;5067207;28;20456;-53
2023/11/02 12:39:20;;;;;;;1.60;0.87;;;14.80;70.40;;;;;;5069225;28;20229;-54
2023/11/02 12:41:47;;;;;;;1.10;0.80;;;14.70;71.50;;;;;;5069003;28;20180;-54
2023/11/02 12:44:14;;;;;;;2.10;1.30;;;14.60;71.70;;;;;;5065677;28;21030;-52
2023/11/02 12:46:41;;;;;;;1.17;1.00;;;14.50;72.20;;;;;;5068116;28;20462;-52
2023/11/02 12:49:17;;;;;;;0.73;0.70;;;14.60;72.00;;;;;;5066855;28;20488;-55
2023/11/02 12:51:44;;;;;;;0.90;0.70;;;14.70;69.80;;;;;;5068181;28;20433;-51
2023/11/02 12:54:14;;;;;;;1.47;0.77;;;14.50;69.70;;;;;;5058479;28;20457;-51
2023/11/02 12:56:41;;;;;;;0.97;0.80;;;14.40;70.10;;;;;;5065985;28;20442;-51
2023/11/02 12:59:07;;;;;;;1.33;0.80;;;14.70;69.30;;;;;;5062512;28;20469;-53
2023/11/02 13:01:52;;;;;;;2.60;0.90;;;14.80;67.40;;;;;;5063154;28;20536;-53